Rousseau, KY (41366)

5:40 PM EDT on July 24, 2014 (GMT -0400)
Carroll (KJKL) Elev 1381 ft | 37.59 °N, 83.31 °W | Change Station

Current weather conditions updated 15 minutes ago

Overcast
Overcast
69 °F
Feels Like 69 °F
N
6
Wind Variable Wind from Variable

Tomorrow is forecast to be Much Warmer than today.

Today
High -- | Low -- °F
--% Chance of Precip.
Yesterday
High -- | Low -- °F
Precip. -- in
6:30 AM 8:48 PM
Waning Crescent, 4% visible
Pressure 30.04 in
Visibility 10.0 miles
Clouds Few 1500 ft
Mostly Cloudy 2200 ft
Overcast 3000 ft
Dew Point 61 °F
Humidity 75%
Rainfall 0.12 in
Snow Depth Not available.
UV 2 out of 12
Pollen .60 out of 12
Air Quality Not available.
Flu Activity Not available.
SPECI KJKL 242125Z AUTO VRB05KT 10SM FEW015 BKN022 OVC030 21/16 A3004 RMK AO2 T02060161

More Conditions Fewer Conditions

Pressure 30.04 in
Visibility 10.0 miles
Clouds Few 1500 ft
Mostly Cloudy 2200 ft
Overcast 3000 ft
Dew Point 61 °F
Humidity 75%
Rainfall 0.12 in
Snow Depth Not available.
UV 2 out of 12
Pollen .60 out of 12
Air Quality Not available.
Flu Activity Not available.
SPECI KJKL 242125Z AUTO VRB05KT 10SM FEW015 BKN022 OVC030 21/16 A3004 RMK AO2 T02060161

More Conditions Fewer Conditions

10-Day Weather Forecast

Almanac

Astronomy

Jul. 24, 2014 Rise Set
Actual Time 6:30 AM EDT 8:48 PM EDT
Civil Twilight 6:00 AM EDT 9:17 PM EDT
Nautical Twilight 5:24 AM EDT 9:54 PM EDT
Astronomical Twilight 4:44 AM EDT 10:33 PM EDT
Moon 4:36 AM EDT 7:02 PM EDT
Length of Visible Light 15h 17m
Length of Day
14h 17m
Tomorrow will be 1m 35s shorter.
Waning Crescent, 4% of the Moon is Illuminated
Today
Waning Crescent
Jul 26
New
Aug 3
First Quarter
Aug 10
Full
Aug 17
Last Quarter

Today's Extremes

State Highs State Lows

Community

WunderPhotos

Upload Photos

1,737,139 photos uploaded!

WunderBlogs® & News

Nearby

Snow Depth

Station Depth Elevation
No new snow has been reported.

Earthquake Activity

City Distance Mag. Time & Date
No recent earthquake activity has been reported nearby.
Minimum magnitude displayed is 2.5.

Coastal Water Temperatures

Place Temperature
No Stations Reporting

Nearby Weather Stations

Station Location Temp. Dew Point Humidity Wind Precip. Elev Updated Type
Talbert, KY 68.8 °F 65 °F 88% North  at  0.0 mph 0.00 in / hr 994 ft 5:40 PM EDT Normal
Middle Creek VFD Station 2, Prestonsburg, KY 71.0 °F 67 °F 86% North  at  0.0 mph - / hr 689 ft 5:32 PM EDT Normal
Middle Creek Battlefield Area, Prestonsburg, KY 68.0 °F 63 °F 84% North  at  0.0 mph 0.00 in / hr 728 ft 5:40 PM EDT Rapid Fire

Show More Stations Show Fewer Stations